Time;durP1;ratioP1;P1;durP2;ratioP2;P2;SDS_P1;SDS_P2;PMS_P1;PMS_P2;Temp;Humidity;BMP_temperature;BMP_pressure;BME280_temperature;BME280_humidity;BME280_pressure;Samples;Min_cycle;Max_cycle;Signal;HPM_P1;HPM_P2
2022/10/26 00:00:49;;;;;;;10.93;8.23;;;;;;;14.20;76.28;100237.86;1740769;80;21093;-51
2022/10/26 00:03:16;;;;;;;10.23;7.60;;;;;;;14.17;76.33;100235.55;1737400;82;21095;-49
2022/10/26 00:05:43;;;;;;;11.78;7.58;;;;;;;14.14;76.33;100242.45;1743557;80;21082;-50
2022/10/26 00:08:10;;;;;;;11.10;7.20;;;;;;;14.12;76.15;100243.07;1749045;81;21223;-50
2022/10/26 00:10:38;;;;;;;10.00;6.90;;;;;;;14.11;76.12;100245.39;1749359;80;21008;-50
2022/10/26 00:13:09;;;;;;;9.93;6.85;;;;;;;14.13;76.30;100242.09;1749789;82;21141;-51
2022/10/26 00:15:41;;;;;;;10.68;7.30;;;;;;;14.15;76.29;100248.56;1740441;81;21063;-50
2022/10/26 00:18:09;;;;;;;11.93;7.67;;;;;;;14.11;76.36;100252.83;1745809;82;21060;-49
2022/10/26 00:20:36;;;;;;;12.43;8.35;;;;;;;14.05;76.56;100257.88;1739755;80;21245;-50
2022/10/26 00:23:04;;;;;;;10.40;8.25;;;;;;;14.03;76.54;100254.56;1738482;80;21052;-49
2022/10/26 00:25:31;;;;;;;10.60;7.42;;;;;;;14.04;76.58;100253.59;1741882;80;21059;-49
2022/10/26 00:27:57;;;;;;;10.18;7.83;;;;;;;14.03;76.62;100250.09;1724022;82;21070;-49
2022/10/26 00:30:24;;;;;;;12.90;8.20;;;;;;;14.00;76.69;100253.53;1742397;80;21024;-50
2022/10/26 00:32:50;;;;;;;10.65;8.08;;;;;;;13.94;76.95;100262.41;1736636;80;21231;-49
2022/10/26 00:35:17;;;;;;;9.28;6.60;;;;;;;13.92;77.20;100261.72;1743033;82;21125;-49
2022/10/26 00:37:44;;;;;;;8.98;6.87;;;;;;;13.95;77.02;100265.87;1735509;82;21063;-50
2022/10/26 00:40:11;;;;;;;9.95;7.15;;;;;;;13.94;76.91;100262.41;1749629;80;20995;-49
2022/10/26 00:42:38;;;;;;;9.05;6.53;;;;;;;13.96;76.87;100263.58;1726164;82;21043;-49
2022/10/26 00:45:21;;;;;;;10.03;7.12;;;;;;;13.98;76.87;100263.44;1720684;83;21229;-50
2022/10/26 00:47:57;;;;;;;9.05;6.78;;;;;;;13.90;76.79;100263.69;1733078;80;21059;-48
2022/10/26 00:50:28;;;;;;;9.23;6.55;;;;;;;13.85;77.03;100257.16;1750485;81;21133;-49
2022/10/26 00:52:55;;;;;;;8.88;6.92;;;;;;;13.83;76.92;100267.87;1747220;80;21038;-49
2022/10/26 00:55:24;;;;;;;9.83;6.30;;;;;;;13.85;76.96;100263.77;1752995;81;21102;-49
2022/10/26 00:57:50;;;;;;;13.00;7.58;;;;;;;13.87;76.97;100265.77;1751890;80;21907;-49
2022/10/26 01:00:18;;;;;;;10.85;7.55;;;;;;;13.85;76.99;100267.27;1735135;81;21113;-48
2022/10/26 01:02:45;;;;;;;10.90;7.60;;;;;;;13.82;76.91;100266.70;1744044;81;21039;-49
2022/10/26 01:05:13;;;;;;;9.45;6.97;;;;;;;13.76;76.90;100266.81;1750185;81;21073;-49
2022/10/26 01:07:40;;;;;;;9.40;6.90;;;;;;;13.79;76.82;100269.16;1749248;80;21016;-50
2022/10/26 01:10:08;;;;;;;10.18;6.50;;;;;;;13.78;76.81;100274.59;1752970;81;21160;-50
2022/10/26 01:12:36;;;;;;;10.05;7.28;;;;;;;13.77;76.90;100276.42;1750132;80;21058;-49
2022/10/26 01:15:03;;;;;;;8.50;6.33;;;;;;;13.67;76.88;100274.31;1750618;81;21141;-50
2022/10/26 01:17:52;;;;;;;9.05;6.83;;;;;;;13.61;77.34;100276.20;1751505;81;21055;-49
2022/10/26 01:20:51;;;;;;;9.95;6.97;;;;;;;13.59;77.36;100271.05;1755790;81;21605;-49
2022/10/26 01:23:33;;;;;;;8.70;7.22;;;;;;;13.61;77.34;100273.56;1751814;81;21130;-49
2022/10/26 01:26:25;;;;;;;9.30;7.25;;;;;;;13.63;77.43;100277.70;1719424;80;21098;-49
2022/10/26 01:29:08;;;;;;;8.90;7.22;;;;;;;13.62;77.42;100289.78;1743026;80;21261;-48
2022/10/26 01:31:43;;;;;;;11.00;7.90;;;;;;;13.54;77.69;100282.06;1746930;81;21072;-53
2022/10/26 01:34:26;;;;;;;8.85;6.87;;;;;;;13.57;77.80;100283.59;1753328;80;21098;-48
2022/10/26 01:36:57;;;;;;;10.32;6.97;;;;;;;13.62;77.65;100285.31;1751871;80;21565;-49
2022/10/26 01:39:41;;;;;;;11.30;7.67;;;;;;;13.61;77.58;100278.84;1748430;81;21098;-49
2022/10/26 01:42:08;;;;;;;10.75;7.33;;;;;;;13.57;77.72;100290.20;1751553;80;21624;-49
2022/10/26 01:44:45;;;;;;;11.22;7.92;;;;;;;13.47;78.08;100288.91;1746848;81;21105;-49
2022/10/26 01:47:14;;;;;;;10.55;7.70;;;;;;;13.40;78.42;100282.54;1753949;81;21051;-49
2022/10/26 01:49:48;;;;;;;12.10;6.83;;;;;;;13.42;78.45;100286.36;1735039;80;22473;-49
2022/10/26 01:52:17;;;;;;;9.78;7.28;;;;;;;13.41;78.67;100288.65;1750408;80;21122;-49
2022/10/26 01:54:44;;;;;;;13.03;7.17;;;;;;;13.39;78.89;100290.11;1750331;81;21038;-49
2022/10/26 01:57:13;;;;;;;11.68;6.60;;;;;;;13.34;79.16;100290.53;1751034;80;21089;-50
2022/10/26 02:00:03;;;;;;;7.97;6.10;;;;;;;13.35;79.35;100290.06;1751496;81;21003;-49
2022/10/26 02:02:43;;;;;;;10.43;6.67;;;;;;;13.38;79.32;100289.28;1735592;80;21237;-49
2022/10/26 02:05:57;;;;;;;11.40;6.95;;;;;;;13.45;79.17;100296.62;1733731;80;21043;-49
2022/10/26 02:08:28;;;;;;;8.68;6.60;;;;;;;13.47;79.24;100294.69;1748570;80;21026;-49
2022/10/26 02:11:27;;;;;;;8.95;6.55;;;;;;;13.45;79.35;100296.62;1748922;81;21000;-50
2022/10/26 02:14:17;;;;;;;8.68;6.47;;;;;;;13.41;79.19;100297.41;1727762;81;21102;-49
2022/10/26 02:16:57;;;;;;;12.28;6.33;;;;;;;13.43;79.17;100291.51;1745330;80;21219;-49
2022/10/26 02:19:30;;;;;;;9.48;6.70;;;;;;;13.47;79.12;100295.52;1750714;81;21054;-50
2022/10/26 02:22:12;;;;;;;10.18;7.33;;;;;;;13.52;79.30;100297.73;1754117;81;21494;-49
2022/10/26 02:24:38;;;;;;;10.23;7.28;;;;;;;13.54;79.34;100300.56;1756635;80;21031;-50
2022/10/26 02:27:07;;;;;;;12.30;7.10;;;;;;;13.55;79.35;100304.06;1752395;80;21046;-50
2022/10/26 02:29:34;;;;;;;8.73;5.97;;;;;;;13.57;79.03;100302.09;1756115;81;21129;-50
2022/10/26 02:32:01;;;;;;;9.35;6.97;;;;;;;13.59;78.78;100305.92;1747651;80;21058;-50
2022/10/26 02:34:28;;;;;;;8.53;6.30;;;;;;;13.64;78.75;100304.50;1750673;80;21081;-49
2022/10/26 02:36:57;;;;;;;8.68;6.00;;;;;;;13.65;78.43;100307.50;1754285;81;20991;-49
2022/10/26 02:39:23;;;;;;;10.45;7.28;;;;;;;13.58;78.33;100306.89;1750783;81;21022;-50
2022/10/26 02:41:50;;;;;;;10.13;6.37;;;;;;;13.48;78.52;100305.59;1750932;80;21094;-49
2022/10/26 02:44:26;;;;;;;10.72;6.08;;;;;;;13.46;78.72;100308.37;1755814;81;21098;-50
2022/10/26 02:46:54;;;;;;;8.63;6.62;;;;;;;13.49;78.67;100301.98;1749040;80;21165;-49
2022/10/26 02:49:20;;;;;;;8.55;6.62;;;;;;;13.54;78.61;100303.20;1755879;81;21542;-50
2022/10/26 02:52:14;;;;;;;9.28;7.03;;;;;;;13.59;78.72;100308.56;1748127;80;21554;-49
2022/10/26 02:55:11;;;;;;;9.23;6.70;;;;;;;13.58;78.75;100306.39;1741451;81;21228;-50
2022/10/26 02:57:40;;;;;;;9.63;7.05;;;;;;;13.58;78.86;100309.53;1741749;80;21083;-49
2022/10/26 03:00:12;;;;;;;9.08;6.30;;;;;;;13.64;78.60;100305.00;1742621;81;21055;-49
2022/10/26 03:02:42;;;;;;;10.75;6.85;;;;;;;13.68;78.51;100309.01;1719219;81;21087;-49
2022/10/26 03:05:15;;;;;;;9.93;6.92;;;;;;;13.74;78.47;100311.91;1735138;82;21008;-51
2022/10/26 03:07:41;;;;;;;9.23;6.65;;;;;;;13.79;78.23;100317.27;1736943;80;21118;-49
2022/10/26 03:10:10;;;;;;;9.45;6.70;;;;;;;13.72;77.89;100317.02;1735840;81;21456;-49
2022/10/26 03:12:37;;;;;;;9.33;5.90;;;;;;;13.63;77.65;100316.54;1735870;80;21628;-49
2022/10/26 03:15:06;;;;;;;9.28;6.47;;;;;;;13.56;77.54;100322.39;1742484;82;21012;-50
2022/10/26 03:17:34;;;;;;;10.05;7.70;;;;;;;13.50;77.64;100317.70;1738041;80;21049;-50
2022/10/26 03:20:02;;;;;;;9.88;7.12;;;;;;;13.44;77.93;100320.08;1738504;80;21233;-50
2022/10/26 03:22:29;;;;;;;9.63;6.80;;;;;;;13.37;78.29;100323.28;1737326;80;22230;-49
2022/10/26 03:24:56;;;;;;;10.60;7.72;;;;;;;13.31;78.55;100322.98;1731508;82;21596;-49
2022/10/26 03:27:22;;;;;;;9.48;6.83;;;;;;;13.33;78.79;100326.34;1734699;80;21086;-52
2022/10/26 03:29:49;;;;;;;11.20;7.17;;;;;;;13.33;78.71;100320.59;1736735;82;21521;-49
2022/10/26 03:32:17;;;;;;;10.60;7.53;;;;;;;13.34;78.66;100324.06;1732301;80;21129;-49
2022/10/26 03:34:45;;;;;;;12.98;7.40;;;;;;;13.29;78.92;100324.95;1734731;80;21084;-49
2022/10/26 03:37:12;;;;;;;8.98;6.58;;;;;;;13.26;79.23;100318.13;1731978;80;21067;-49
2022/10/26 03:39:40;;;;;;;10.38;6.60;;;;;;;13.22;79.40;100315.92;1721662;80;21439;-49
2022/10/26 03:42:06;;;;;;;11.08;6.67;;;;;;;13.25;79.40;100319.61;1717773;80;21712;-48
2022/10/26 03:44:34;;;;;;;10.43;6.12;;;;;;;13.28;79.19;100320.62;1735814;82;21044;-49
2022/10/26 03:47:02;;;;;;;9.78;7.20;;;;;;;13.29;79.08;100313.06;1717775;82;21118;-49
2022/10/26 03:49:28;;;;;;;10.45;7.25;;;;;;;13.30;79.13;100314.73;1713027;83;21489;-49
2022/10/26 03:51:56;;;;;;;11.22;7.45;;;;;;;13.26;79.23;100306.23;1729113;80;21124;-49
2022/10/26 03:54:23;;;;;;;9.98;6.87;;;;;;;13.22;79.38;100310.64;1726401;82;21051;-49
2022/10/26 03:56:51;;;;;;;10.30;6.70;;;;;;;13.18;79.29;100312.24;1715558;82;22143;-49
2022/10/26 03:59:18;;;;;;;12.98;6.83;;;;;;;13.20;79.26;100312.93;1729401;81;21054;-49
2022/10/26 04:01:45;;;;;;;11.88;7.12;;;;;;;13.28;79.44;100314.02;1723414;80;21437;-49
2022/10/26 04:04:13;;;;;;;11.55;8.33;;;;;;;13.33;79.33;100310.49;1741631;81;21084;-49
2022/10/26 04:06:39;;;;;;;10.78;7.97;;;;;;;13.37;79.42;100311.89;1738517;82;21047;-49
2022/10/26 04:09:07;;;;;;;9.90;7.22;;;;;;;13.37;79.28;100309.25;1732400;81;21229;-49
2022/10/26 04:11:34;;;;;;;11.25;6.50;;;;;;;13.39;79.10;100308.61;1722450;80;20987;-49
2022/10/26 04:14:00;;;;;;;11.63;7.17;;;;;;;13.45;78.98;100310.69;1730340;81;21490;-49
2022/10/26 04:16:28;;;;;;;14.87;7.20;;;;;;;13.46;78.69;100307.55;1717408;82;21067;-49
2022/10/26 04:18:55;;;;;;;10.98;7.17;;;;;;;13.45;78.93;100305.41;1715327;80;21027;-49
2022/10/26 04:21:22;;;;;;;11.03;6.47;;;;;;;13.43;78.82;100303.87;1713053;82;21222;-50
2022/10/26 04:23:48;;;;;;;10.50;7.28;;;;;;;13.38;78.82;100302.97;1715226;80;21483;-49
2022/10/26 04:26:15;;;;;;;9.48;6.30;;;;;;;13.40;78.77;100302.83;1718699;81;21062;-50
2022/10/26 04:28:42;;;;;;;11.55;7.05;;;;;;;13.37;78.70;100306.11;1738878;80;20997;-49
2022/10/26 04:31:09;;;;;;;12.65;7.47;;;;;;;13.33;78.94;100302.09;1721872;81;21143;-50
2022/10/26 04:33:37;;;;;;;10.60;6.55;;;;;;;13.28;79.18;100306.95;1735475;80;21087;-50
2022/10/26 04:36:04;;;;;;;10.98;5.80;;;;;;;13.24;79.48;100305.55;1714679;81;21102;-49
2022/10/26 04:38:32;;;;;;;9.73;7.03;;;;;;;13.27;79.51;100309.73;1718594;80;21029;-50
2022/10/26 04:40:59;;;;;;;10.63;6.70;;;;;;;13.32;79.33;100298.27;1712946;83;21087;-50
2022/10/26 04:43:27;;;;;;;9.83;6.70;;;;;;;13.36;79.43;100306.25;1716920;82;21105;-50
2022/10/26 04:45:57;;;;;;;12.20;8.05;;;;;;;13.35;79.18;100307.24;1733721;80;21325;-49
2022/10/26 04:48:23;;;;;;;12.40;6.95;;;;;;;13.27;79.21;100301.30;1725437;82;21067;-49
2022/10/26 04:50:51;;;;;;;13.43;5.95;;;;;;;13.22;79.29;100313.28;1720002;82;21054;-50
2022/10/26 04:53:18;;;;;;;10.58;7.05;;;;;;;13.17;79.26;100306.59;1736642;80;21003;-50
2022/10/26 04:55:45;;;;;;;11.83;7.42;;;;;;;13.16;79.26;100306.27;1747116;81;21109;-49
2022/10/26 04:58:11;;;;;;;10.30;7.30;;;;;;;13.12;79.39;100300.91;1735240;80;21220;-49
2022/10/26 05:00:37;;;;;;;12.23;7.20;;;;;;;13.04;79.66;100307.38;1746200;80;21059;-49
2022/10/26 05:03:05;;;;;;;10.03;6.87;;;;;;;12.97;80.08;100307.11;1741218;80;21083;-49
2022/10/26 05:06:38;;;;;;;11.20;7.62;;;;;;;12.88;81.13;100302.68;1789801;79;22406;-50
2022/10/26 05:09:05;;;;;;;12.05;7.83;;;;;;;13.03;80.24;100303.55;1780499;80;21299;-50
2022/10/26 05:11:33;;;;;;;15.98;8.00;;;;;;;13.01;80.36;100309.83;1770227;80;21549;-50
2022/10/26 05:14:00;;;;;;;10.43;7.03;;;;;;;13.04;80.34;100303.42;1777571;80;21049;-49
2022/10/26 05:16:27;;;;;;;12.00;6.60;;;;;;;13.09;80.42;100310.44;1771082;80;21009;-51
2022/10/26 05:18:55;;;;;;;9.88;7.00;;;;;;;13.14;80.46;100315.30;1771606;80;21036;-52
2022/10/26 05:21:21;;;;;;;10.32;6.87;;;;;;;13.15;80.54;100313.84;1783094;80;21037;-50
2022/10/26 05:23:54;;;;;;;14.87;7.60;;;;;;;13.17;80.72;100313.20;1769967;80;21726;-50
2022/10/26 05:26:22;;;;;;;8.50;5.95;;;;;;;13.27;80.85;100317.66;1764815;80;21648;-50
2022/10/26 05:28:49;;;;;;;10.20;6.70;;;;;;;13.40;80.59;100316.04;1771879;80;21447;-50
2022/10/26 05:31:16;;;;;;;10.85;6.62;;;;;;;13.47;80.33;100321.13;1759796;80;21105;-50
2022/10/26 05:33:43;;;;;;;11.05;6.83;;;;;;;13.52;80.09;100326.31;1784032;80;21093;-50
2022/10/26 05:36:09;;;;;;;9.58;6.35;;;;;;;13.53;79.99;100323.17;1787574;80;21231;-50
2022/10/26 05:38:36;;;;;;;9.23;5.72;;;;;;;13.53;79.93;100325.81;1748750;81;21047;-50
2022/10/26 05:41:03;;;;;;;9.98;6.28;;;;;;;13.62;79.80;100329.44;1735376;82;21050;-51
2022/10/26 05:43:29;;;;;;;8.83;5.55;;;;;;;13.68;79.25;100330.16;1715729;81;21137;-50
2022/10/26 05:45:56;;;;;;;11.53;6.37;;;;;;;13.75;79.08;100329.92;1706594;83;21111;-50
2022/10/26 05:48:23;;;;;;;11.43;6.97;;;;;;;13.80;78.86;100338.75;1697989;81;21242;-50
2022/10/26 05:50:49;;;;;;;9.15;6.22;;;;;;;13.82;78.70;100335.46;1721367;83;21109;-50
2022/10/26 05:53:16;;;;;;;8.60;6.28;;;;;;;13.84;78.44;100336.17;1720038;83;21062;-49
2022/10/26 05:55:43;;;;;;;10.30;6.42;;;;;;;13.89;78.03;100333.42;1740552;82;21016;-49
2022/10/26 05:58:13;;;;;;;9.63;6.42;;;;;;;13.94;77.85;100335.64;1725892;82;21133;-50
2022/10/26 06:01:02;;;;;;;8.85;5.97;;;;;;;13.93;77.71;100333.97;1734303;82;21018;-49
2022/10/26 06:03:49;;;;;;;9.33;6.47;;;;;;;13.90;77.80;100337.75;1619956;82;21128;-50
2022/10/26 06:06:18;;;;;;;8.78;5.92;;;;;;;13.90;77.89;100345.69;1709075;82;21054;-49
2022/10/26 06:08:46;;;;;;;9.68;6.05;;;;;;;13.89;77.71;100344.51;1699689;84;21071;-49
2022/10/26 06:11:14;;;;;;;8.95;6.35;;;;;;;13.91;77.62;100347.83;1700406;84;21518;-50
2022/10/26 06:13:43;;;;;;;8.85;6.10;;;;;;;13.91;77.56;100344.69;1699652;84;21246;-49
2022/10/26 06:16:41;;;;;;;10.78;6.55;;;;;;;13.92;77.63;100350.33;1689795;84;21121;-49
2022/10/26 06:19:23;;;;;;;8.25;5.80;;;;;;;13.90;77.65;100348.33;1693174;84;21771;-50
2022/10/26 06:22:24;;;;;;;9.08;6.20;;;;;;;13.89;77.80;100347.16;1697273;84;21534;-50
2022/10/26 06:25:13;;;;;;;10.10;6.40;;;;;;;13.97;77.84;100350.38;1685739;84;21129;-49
2022/10/26 06:28:06;;;;;;;9.50;6.92;;;;;;;14.02;77.62;100348.13;1689022;84;21249;-50
2022/10/26 06:32:45;;;;;;;11.00;7.45;;;;;;;13.85;78.94;100356.34;1795312;78;22458;-63
2022/10/26 06:35:37;;;;;;;8.50;6.25;;;;;;;13.96;78.20;100358.81;1766711;80;21096;-64
2022/10/26 06:38:10;;;;;;;11.22;7.25;;;;;;;14.00;78.02;100356.20;1771048;80;21232;-63
2022/10/26 06:40:38;;;;;;;12.50;7.65;;;;;;;14.12;78.17;100360.81;1769285;80;20955;-63
2022/10/26 06:43:31;;;;;;;11.73;7.20;;;;;;;14.19;77.77;100361.06;1763264;80;21133;-63
2022/10/26 06:46:30;;;;;;;10.82;7.05;;;;;;;14.19;77.68;100365.03;1776961;80;20999;-63
2022/10/26 06:49:15;;;;;;;10.98;6.83;;;;;;;14.16;77.77;100360.88;1713602;81;21042;-62
2022/10/26 06:52:06;;;;;;;11.53;7.05;;;;;;;14.21;77.72;100356.48;1719882;81;21780;-62
2022/10/26 06:54:53;;;;;;;10.78;7.10;;;;;;;14.30;77.45;100358.23;1722364;83;21569;-62
2022/10/26 06:57:25;;;;;;;13.53;7.37;;;;;;;14.41;77.51;100362.00;1722464;82;21170;-62
2022/10/26 06:59:56;;;;;;;10.32;7.35;;;;;;;14.47;76.81;100367.19;1753074;81;21026;-62
2022/10/26 07:02:23;;;;;;;10.43;7.10;;;;;;;14.46;76.81;100378.77;1739870;81;21517;-63
2022/10/26 07:04:50;;;;;;;11.48;7.00;;;;;;;14.46;76.64;100374.80;1743728;81;21259;-62
2022/10/26 07:07:19;;;;;;;10.18;7.03;;;;;;;14.53;76.35;100374.55;1728632;81;21011;-63
2022/10/26 07:09:46;;;;;;;12.37;7.42;;;;;;;14.56;76.12;100379.55;1723015;83;21574;-62
2022/10/26 07:12:12;;;;;;;9.53;6.87;;;;;;;14.60;76.26;100374.31;1724308;81;21059;-62
2022/10/26 07:14:40;;;;;;;13.15;6.97;;;;;;;14.70;76.10;100390.14;1728424;82;21113;-63
2022/10/26 07:17:08;;;;;;;9.55;6.05;;;;;;;14.73;75.02;100387.70;1724521;83;21255;-64
2022/10/26 07:19:35;;;;;;;8.65;5.90;;;;;;;14.71;74.58;100390.97;1725029;83;22248;-63
2022/10/26 07:22:03;;;;;;;8.08;5.55;;;;;;;14.77;74.78;100393.03;1722763;83;21039;-63
2022/10/26 07:24:30;;;;;;;10.30;5.95;;;;;;;14.75;74.43;100393.17;1718388;83;21056;-63
2022/10/26 07:26:57;;;;;;;12.15;6.03;;;;;;;14.75;74.53;100396.33;1710669;83;21055;-63
2022/10/26 07:29:25;;;;;;;9.73;4.75;;;;;;;14.80;74.62;100395.38;1704494;83;21811;-64
2022/10/26 07:31:52;;;;;;;9.23;5.12;;;;;;;14.85;74.16;100397.09;1700118;83;21901;-63
2022/10/26 07:34:19;;;;;;;6.92;4.17;;;;;;;14.91;73.77;100395.64;1688231;83;21091;-63
2022/10/26 07:36:46;;;;;;;8.88;4.50;;;;;;;14.99;73.60;100399.70;1688587;84;21098;-63
2022/10/26 07:39:12;;;;;;;9.20;4.45;;;;;;;15.00;72.95;100403.52;1757717;80;21047;-62
2022/10/26 07:41:40;;;;;;;7.47;3.98;;;;;;;15.00;73.13;100406.17;1773675;80;21216;-62
2022/10/26 07:44:06;;;;;;;9.03;4.50;;;;;;;15.05;72.87;100410.53;1754548;80;21478;-63
2022/10/26 07:46:33;;;;;;;7.53;4.22;;;;;;;15.12;72.02;100409.93;1743144;80;21556;-63
2022/10/26 07:49:00;;;;;;;6.92;4.15;;;;;;;15.13;72.08;100411.11;1746969;80;21531;-63
2022/10/26 07:51:27;;;;;;;7.20;3.92;;;;;;;15.13;72.09;100411.11;1743769;80;21532;-63
2022/10/26 07:53:55;;;;;;;6.72;3.58;;;;;;;15.11;72.26;100409.58;1748606;80;21219;-63
2022/10/26 07:56:22;;;;;;;7.42;3.35;;;;;;;15.13;72.11;100408.92;1744891;80;21098;-63
2022/10/26 07:58:54;;;;;;;5.78;3.35;;;;;;;15.21;71.93;100411.66;1761282;80;21060;-63
2022/10/26 08:01:21;;;;;;;6.00;3.58;;;;;;;15.23;71.49;100411.00;1765295;79;21011;-64
2022/10/26 08:03:53;;;;;;;6.72;3.87;;;;;;;15.21;71.26;100411.19;1771753;80;21047;-63
2022/10/26 08:06:21;;;;;;;6.90;3.62;;;;;;;15.21;71.26;100414.30;1764202;80;21156;-63
2022/10/26 08:08:47;;;;;;;9.10;3.85;;;;;;;15.25;71.34;100419.66;1744901;80;21072;-63
2022/10/26 08:11:15;;;;;;;6.28;3.55;;;;;;;15.31;71.39;100419.53;1744336;80;21098;-63
2022/10/26 08:13:41;;;;;;;8.13;3.58;;;;;;;15.37;71.30;100420.25;1763029;80;21043;-63
2022/10/26 08:16:09;;;;;;;6.30;3.55;;;;;;;15.42;71.23;100421.95;1773108;80;21074;-64
2022/10/26 08:18:36;;;;;;;7.08;3.65;;;;;;;15.44;71.30;100419.97;1772944;80;21990;-64
2022/10/26 08:21:05;;;;;;;7.60;4.37;;;;;;;15.51;71.16;100420.19;1768338;80;21067;-63
2022/10/26 08:23:33;;;;;;;5.87;3.35;;;;;;;15.57;70.68;100421.73;1742685;82;21020;-64
2022/10/26 08:26:01;;;;;;;8.43;4.15;;;;;;;15.57;70.63;100424.39;1745308;80;21052;-64
2022/10/26 08:28:29;;;;;;;6.15;3.95;;;;;;;15.55;70.59;100422.39;1742487;82;21028;-63
2022/10/26 08:30:55;;;;;;;6.30;3.55;;;;;;;15.46;70.91;100427.27;1761189;80;21159;-64
2022/10/26 08:33:23;;;;;;;7.97;3.80;;;;;;;15.42;71.23;100428.58;1757889;80;21036;-63
2022/10/26 08:35:58;;;;;;;6.80;3.90;;;;;;;15.50;70.92;100431.77;1744122;80;21670;-63
2022/10/26 08:38:25;;;;;;;5.73;3.47;;;;;;;15.52;70.67;100426.67;1750718;80;21068;-63
2022/10/26 08:40:52;;;;;;;5.87;3.50;;;;;;;15.55;70.83;100427.70;1772508;80;21015;-63
2022/10/26 08:43:41;;;;;;;6.90;3.90;;;;;;;15.58;70.80;100428.72;1773225;80;21252;-64
2022/10/26 08:46:18;;;;;;;6.17;3.60;;;;;;;15.56;70.50;100431.17;1745645;80;21055;-63
2022/10/26 08:48:49;;;;;;;6.55;3.40;;;;;;;15.58;70.48;100429.19;1750217;80;21015;-63
2022/10/26 08:51:23;;;;;;;6.95;3.98;;;;;;;15.58;70.58;100433.17;1760042;80;21683;-64
2022/10/26 08:53:54;;;;;;;7.05;4.05;;;;;;;15.60;70.68;100433.84;1706796;84;21157;-63
2022/10/26 08:56:30;;;;;;;6.58;3.58;;;;;;;15.64;70.78;100439.70;1706251;83;21541;-63
2022/10/26 08:59:24;;;;;;;5.85;3.22;;;;;;;15.68;70.09;100435.23;1773027;80;21559;-63
2022/10/26 09:01:50;;;;;;;5.92;3.45;;;;;;;15.78;70.00;100441.80;1763413;80;21102;-60
2022/10/26 09:04:17;;;;;;;6.35;3.62;;;;;;;15.87;69.31;100451.97;1759788;80;21059;-61
2022/10/26 09:10:04;;;;;;;5.42;3.05;;;;;;;15.96;69.54;100450.55;1765254;78;22404;-68
2022/10/26 09:13:55;;;;;;;6.12;3.40;;;;;;;16.03;69.01;100457.39;1796332;77;22095;-68
2022/10/26 09:16:44;;;;;;;5.78;3.27;;;;;;;16.13;68.75;100466.08;1765613;80;21081;-68
2022/10/26 09:19:36;;;;;;;6.10;3.25;;;;;;;16.21;68.40;100465.80;1763097;80;21300;-70
2022/10/26 09:22:29;;;;;;;6.58;2.70;;;;;;;16.19;67.73;100459.80;1787162;80;20946;-68
2022/10/26 09:24:56;;;;;;;5.78;3.20;;;;;;;16.20;67.34;100457.49;1782362;80;21042;-69
2022/10/26 09:27:31;;;;;;;6.60;3.10;;;;;;;16.30;67.40;100451.06;1783405;80;20943;-69
2022/10/26 09:30:02;;;;;;;11.10;3.27;;;;;;;16.41;67.27;100449.97;1746473;81;21043;-69
2022/10/26 09:32:34;;;;;;;6.15;3.47;;;;;;;16.47;66.16;100455.95;1750176;81;21223;-69
2022/10/26 09:35:06;;;;;;;5.25;2.62;;;;;;;16.47;65.34;100451.97;1723921;81;21635;-70
2022/10/26 09:37:45;;;;;;;6.22;2.83;;;;;;;16.42;65.07;100446.30;1728871;81;20970;-69
2022/10/26 09:40:39;;;;;;;6.28;2.90;;;;;;;16.37;65.12;100446.45;1756020;81;21038;-69
2022/10/26 09:43:17;;;;;;;6.60;3.40;;;;;;;16.45;65.27;100445.17;1732715;81;21018;-68
2022/10/26 09:45:46;;;;;;;6.28;3.22;;;;;;;16.55;64.76;100445.87;1725750;81;21156;-69
2022/10/26 09:48:35;;;;;;;5.47;2.72;;;;;;;16.57;64.82;100449.70;1737138;81;21050;-69
2022/10/26 09:51:02;;;;;;;5.22;2.65;;;;;;;16.48;64.91;100451.49;1729196;81;21058;-70
2022/10/26 09:53:29;;;;;;;5.65;2.87;;;;;;;16.43;65.48;100456.45;1704627;81;21136;-69
2022/10/26 09:56:07;;;;;;;4.78;2.20;;;;;;;16.42;65.59;100457.43;1722257;81;21008;-70
2022/10/26 09:59:00;;;;;;;4.90;2.50;;;;;;;16.51;65.94;100458.64;1721845;83;22188;-69
2022/10/26 10:01:33;;;;;;;5.42;2.83;;;;;;;16.54;65.91;100453.48;1722867;83;21076;-69
2022/10/26 10:04:19;;;;;;;5.30;2.67;;;;;;;16.49;66.20;100457.98;1700991;81;21068;-69
2022/10/26 10:06:48;;;;;;;6.08;2.90;;;;;;;16.42;66.14;100462.23;1713166;83;21076;-69
2022/10/26 10:09:21;;;;;;;6.65;3.42;;;;;;;16.35;65.95;100456.73;1751723;81;21114;-69
2022/10/26 10:12:00;;;;;;;5.45;2.67;;;;;;;16.29;66.43;100460.03;1744182;81;21860;-69
2022/10/26 10:14:41;;;;;;;10.88;3.42;;;;;;;16.35;66.12;100458.05;1763881;79;21125;-69
2022/10/26 10:17:20;;;;;;;6.75;3.10;;;;;;;16.34;65.80;100452.93;1722330;81;21058;-68
2022/10/26 10:19:46;;;;;;;6.37;3.67;;;;;;;16.31;65.91;100460.70;1804391;78;21030;-69
2022/10/26 10:22:21;;;;;;;9.43;3.37;;;;;;;16.27;66.27;100463.83;1817388;79;21030;-68
2022/10/26 10:24:56;;;;;;;6.47;3.02;;;;;;;16.22;66.09;100453.67;1758639;79;21198;-68
2022/10/26 10:27:23;;;;;;;10.00;4.30;;;;;;;16.21;66.21;100458.66;1772238;80;21039;-69
2022/10/26 10:29:51;;;;;;;7.53;3.87;;;;;;;16.15;66.90;100463.27;1765451;80;21027;-69
2022/10/26 10:32:31;;;;;;;6.55;3.55;;;;;;;16.13;67.50;100467.91;1763557;81;21639;-69
2022/10/26 10:34:59;;;;;;;8.35;4.10;;;;;;;16.14;67.87;100463.77;1811640;79;21491;-69
2022/10/26 10:37:37;;;;;;;6.80;3.85;;;;;;;16.23;67.79;100454.52;1768289;79;20993;-70
2022/10/26 10:40:10;;;;;;;8.30;3.85;;;;;;;16.34;67.67;100456.41;1752425;80;21046;-69
2022/10/26 10:42:38;;;;;;;8.85;4.28;;;;;;;16.47;67.75;100455.13;1746109;80;21582;-68
2022/10/26 10:45:18;;;;;;;8.45;4.55;;;;;;;16.59;67.66;100455.67;1771317;80;21035;-69
2022/10/26 10:48:14;;;;;;;12.03;4.40;;;;;;;16.74;67.56;100458.55;1768314;80;20987;-69
2022/10/26 10:50:58;;;;;;;6.83;4.28;;;;;;;16.81;66.56;100454.25;1766935;80;22350;-69
2022/10/26 10:53:39;;;;;;;8.08;5.05;;;;;;;16.94;66.37;100465.78;1758205;79;21599;-70
2022/10/26 10:56:31;;;;;;;12.55;4.95;;;;;;;16.99;65.01;100460.81;1764686;79;21047;-69
2022/10/26 10:59:33;;;;;;;7.75;4.62;;;;;;;16.90;65.48;100464.77;1773680;79;21034;-68
2022/10/26 11:02:31;;;;;;;6.50;3.95;;;;;;;16.87;65.67;100463.77;1759049;80;21023;-69
2022/10/26 11:05:36;;;;;;;6.87;3.37;;;;;;;16.86;64.85;100458.13;1717390;82;21822;-69
2022/10/26 11:08:11;;;;;;;8.63;4.08;;;;;;;16.89;64.09;100453.83;1779989;79;21096;-69
2022/10/26 11:10:51;;;;;;;5.53;3.20;;;;;;;16.92;64.00;100464.61;1769805;79;21054;-69
2022/10/26 11:13:26;;;;;;;5.65;3.42;;;;;;;16.98;64.02;100464.45;1768684;79;21043;-70
2022/10/26 11:16:00;;;;;;;9.35;3.90;;;;;;;17.13;63.29;100462.84;1766339;80;21021;-69
2022/10/26 11:18:36;;;;;;;7.42;4.15;;;;;;;17.19;61.94;100461.34;1757476;80;21565;-69
2022/10/26 11:21:18;;;;;;;;;;;;;;;17.17;62.20;100458.84;1763589;79;20992;-69
2022/10/26 11:23:52;;;;;;;7.42;3.65;;;;;;;17.23;61.97;100460.02;1782874;78;20158;-69
2022/10/26 11:26:54;;;;;;;7.15;3.77;;;;;;;17.31;61.56;100464.52;1758843;79;21098;-69
2022/10/26 11:29:39;;;;;;;7.22;3.72;;;;;;;17.39;59.35;100454.71;1700335;83;21618;-67
2022/10/26 11:32:25;;;;;;;7.20;4.15;;;;;;;17.38;59.69;100469.02;1771807;79;21936;-67
2022/10/26 11:35:11;;;;;;;7.78;4.08;;;;;;;17.45;59.78;100464.70;1796114;79;21074;-70
2022/10/26 11:37:55;;;;;;;7.00;3.85;;;;;;;17.53;60.05;100463.85;1678582;85;21039;-68
2022/10/26 11:40:57;;;;;;;7.47;3.90;;;;;;;17.62;59.20;100468.19;1726267;82;21047;-69
2022/10/26 11:43:46;;;;;;;13.03;3.83;;;;;;;17.59;59.03;100463.20;1768497;79;21086;-68
2022/10/26 11:46:37;;;;;;;7.20;4.20;;;;;;;17.50;59.10;100461.55;1702120;82;21229;-69
2022/10/26 11:49:14;;;;;;;8.23;3.72;;;;;;;17.45;58.83;100467.87;1701374;82;21015;-68
2022/10/26 11:51:49;;;;;;;8.20;4.45;;;;;;;17.36;58.72;100466.19;1646333;85;22261;-68
2022/10/26 11:54:43;;;;;;;6.67;3.80;;;;;;;17.27;58.38;100473.33;1682017;83;21055;-69
2022/10/26 11:57:10;;;;;;;7.15;3.72;;;;;;;17.20;59.03;100477.14;1742593;82;20995;-69